KSVHKHBI

Guest
Details From KSVH - Statesville Rgnl
To KHBI - Asheboro Rgnl
Flight Number -
Tags generated
Created
Modified
Stats Distance 52 nm / 97 km
Max Altitude 1,200 ft / 366 m
Waypoints 3
Social Downloads 0
Likes 0
Share VATSIM

Download

Looking for another format? Having issues loading an existing format? Contact us
Advertisement - Login to hide

Notes

Basic altitude profile: - Ascent Rate: 2500ft/min - Ascent Speed: 250kts - Cruise Altitude: 35000ft - Cruise Speed: 420kts - Descent Rate: 1500ft/min - Descent Speed: 250kts Options: - Use NATs: yes - Use PACOTS: yes - Use low airways: yes - Use high airways: yes

Route

KSVH OWALT KHBI

ID Type Via Altitude Latitude Longitude Leg Dist Tot Dist Heading (true) Name
O KSVH APT - 0 ft / 0 m 35.76500˚ -80.95390˚ - 0 nm - Statesville Rgnl
OWALT FIX - 1,200 ft / 366 m 35.74947˚ -80.88256˚ 3 nm 3 nm 105° / 105° -
O KHBI APT - 0 ft / 0 m 35.65453˚ -79.89474˚ 48 nm 52 nm 96° / 97° Asheboro Rgnl

Altitude Profile

Advertisement - Login to hide

KSVH

Details ICAO KSVH (SVH)
Name Statesville Rgnl
Region United States
Timezone America/New_York (UTC-5.0)
Stats Elevation 965 ft / 294 m (AMSL)
Location 35.764996° -80.953896°
Runways 1
Magnetic Variation 7.775° W

METAR

KSVH 131825Z AUTO 23011G16KT 10SM CLR 06/M17 A2987 RMK AO2 T00571166

Decode

TAF

Not found

Departure Runways

ID Width Length Bearing (true) Bearing (mag) Surface Threshold Offset Overrun Length
10 98 ft / 30 m 6,993 ft / 2,131 m 96.86° 104.64° Asphalt 1,001 ft / 305 m 0 ft / 0 m
28 98 ft / 30 m 6,993 ft / 2,131 m 276.88° 284.66° Asphalt 551 ft / 168 m 0 ft / 0 m

KHBI

Details ICAO KHBI
Name Asheboro Rgnl
Region United States
Timezone America/New_York (UTC-5.0)
Stats Elevation 673 ft / 205 m (AMSL)
Location 35.654528° -79.894738°
Runways 1
Magnetic Variation 8.445° W

METAR

KHBI 131840Z AUTO 24007KT 200V260 10SM CLR 05/M13 A2992 RMK AO2 T00451131

Decode

TAF

Not found

Destination Runways

ID Width Length Bearing (true) Bearing (mag) Surface Threshold Offset Overrun Length
03 100 ft / 30 m 5,512 ft / 1,680 m 21.47° 29.92° Asphalt 0 ft / 0 m 0 ft / 0 m
21 100 ft / 30 m 5,512 ft / 1,680 m 201.47° 209.92° Asphalt 0 ft / 0 m 0 ft / 0 m